createdAt,value
2022-09-16T00:03:24.243Z,22.86
2022-09-16T00:08:23.548Z,22.85
2022-09-16T00:13:23.890Z,22.86
2022-09-16T00:18:22.192Z,22.94
2022-09-16T00:23:21.507Z,22.95
2022-09-16T00:28:20.802Z,23.01
2022-09-16T00:33:21.106Z,22.98
2022-09-16T00:38:19.399Z,22.92
2022-09-16T00:43:18.735Z,22.92
2022-09-16T00:48:18.048Z,22.86
2022-09-16T00:53:18.367Z,22.83
2022-09-16T00:58:17.660Z,22.82
2022-09-16T01:03:15.947Z,22.88
2022-09-16T01:08:15.223Z,22.85
2022-09-16T01:13:14.503Z,22.86
2022-09-16T01:18:13.798Z,22.88
2022-09-16T01:23:13.148Z,22.79
2022-09-16T01:28:14.394Z,22.77
2022-09-16T01:33:12.716Z,22.75
2022-09-16T01:38:12.999Z,22.79
2022-09-16T01:43:11.280Z,22.82
2022-09-16T01:48:10.573Z,22.82
2022-09-16T01:53:09.864Z,22.75
2022-09-16T01:58:08.182Z,22.82
2022-09-16T02:03:07.526Z,22.76
2022-09-16T02:08:07.664Z,22.73
2022-09-16T02:13:05.775Z,22.68
2022-09-16T02:18:06.075Z,22.67
2022-09-16T02:23:04.384Z,22.68
2022-09-16T02:28:04.666Z,22.62
2022-09-16T02:33:02.959Z,22.64
2022-09-16T02:38:01.260Z,22.62
2022-09-16T02:43:01.560Z,22.62
2022-09-16T02:48:01.851Z,22.62
2022-09-16T02:53:00.157Z,22.58
2022-09-16T02:57:59.445Z,22.57
2022-09-16T03:02:58.787Z,22.52
2022-09-16T03:07:57.874Z,22.52
2022-09-16T03:12:57.165Z,22.49
2022-09-16T03:17:57.514Z,22.51
2022-09-16T03:22:56.667Z,22.47
2022-09-16T03:27:53.754Z,22.43
2022-09-16T03:32:55.072Z,22.40
2022-09-16T03:37:55.379Z,22.45
2022-09-16T03:42:52.681Z,22.45
2022-09-16T03:47:52.987Z,22.42
2022-09-16T03:52:53.281Z,22.42
2022-09-16T03:57:50.586Z,22.36
2022-09-16T04:02:50.055Z,22.35
2022-09-16T04:07:49.213Z,22.35
2022-09-16T04:12:48.535Z,22.30
2022-09-16T04:17:47.921Z,22.27
2022-09-16T04:22:47.045Z,22.17
2022-09-16T04:27:47.384Z,22.10
2022-09-16T04:32:45.655Z,22.12
2022-09-16T04:37:45.963Z,22.20
2022-09-16T04:42:44.215Z,22.25
2022-09-16T04:47:43.482Z,22.15
2022-09-16T04:52:42.762Z,22.18
2022-09-16T04:57:42.074Z,22.17
2022-09-16T05:02:42.442Z,22.14
2022-09-16T05:07:40.547Z,22.17
2022-09-16T05:12:41.846Z,22.15
2022-09-16T05:17:50.904Z,22.12
2022-09-16T05:22:38.299Z,22.09
2022-09-16T05:27:39.609Z,22.05
2022-09-16T05:32:37.904Z,22.07
2022-09-16T05:37:36.205Z,22.09
2022-09-16T05:42:36.511Z,22.10
2022-09-16T05:47:34.816Z,22.10
2022-09-16T05:52:34.170Z,22.15
2022-09-16T05:57:34.296Z,22.12
2022-09-16T06:02:33.658Z,22.18
2022-09-16T06:07:32.806Z,22.18
2022-09-16T06:12:31.119Z,22.12
2022-09-16T06:17:31.427Z,22.07
2022-09-16T06:22:30.730Z,22.05
2022-09-16T06:27:29.051Z,22.06
2022-09-16T06:32:28.428Z,22.06
2022-09-16T06:37:28.552Z,22.05
2022-09-16T06:42:26.863Z,22.03
2022-09-16T06:47:26.221Z,22.10
2022-09-16T06:52:25.305Z,22.14
2022-09-16T06:57:24.625Z,22.20
2022-09-16T07:02:23.880Z,22.25
2022-09-16T07:07:22.970Z,22.30
2022-09-16T07:12:23.301Z,22.33
2022-09-16T07:17:21.614Z,22.31
2022-09-16T07:22:21.908Z,22.42
2022-09-16T07:27:20.191Z,22.36
2022-09-16T07:32:19.477Z,22.42
2022-09-16T07:37:18.795Z,22.43
2022-09-16T07:42:18.081Z,22.55
2022-09-16T07:47:21.997Z,22.62
2022-09-16T07:52:18.532Z,22.62
2022-09-16T07:57:16.833Z,22.70
2022-09-16T08:02:15.245Z,22.75
2022-09-16T08:07:15.386Z,22.72
2022-09-16T08:12:12.691Z,22.79
2022-09-16T08:17:12.994Z,22.79
2022-09-16T08:22:12.296Z,22.70
2022-09-16T08:27:13.610Z,22.68
2022-09-16T08:32:10.949Z,22.68
2022-09-16T08:37:10.068Z,22.67
2022-09-16T08:42:10.393Z,22.68
2022-09-16T08:47:08.673Z,22.73
2022-09-16T08:52:09.033Z,22.76
2022-09-16T08:57:07.396Z,22.76
2022-09-16T09:02:09.446Z,22.86
2022-09-16T09:07:07.857Z,22.82
2022-09-16T09:12:06.312Z,22.86
2022-09-16T09:17:04.673Z,22.86
2022-09-16T09:22:04.781Z,22.95
2022-09-16T09:27:03.119Z,23.00
2022-09-16T09:32:03.481Z,23.00
2022-09-16T09:37:00.619Z,23.04
2022-09-16T09:42:00.769Z,23.01
2022-09-16T09:47:01.909Z,23.01
2022-09-16T09:52:00.267Z,23.02
2022-09-16T09:56:59.420Z,23.05
2022-09-16T10:01:59.785Z,23.05
2022-09-16T10:06:56.777Z,23.02
2022-09-16T10:11:56.073Z,23.00
2022-09-16T10:16:56.454Z,23.04
2022-09-16T10:21:54.589Z,23.09
2022-09-16T10:26:55.752Z,23.04
2022-09-16T10:31:53.942Z,23.10
2022-09-16T10:36:53.094Z,23.15
2022-09-16T10:41:50.817Z,23.22
2022-09-16T10:46:49.638Z,23.23
2022-09-16T10:51:49.875Z,23.25
2022-09-16T10:56:52.131Z,23.19
2022-09-16T11:01:48.954Z,23.27
2022-09-16T11:06:49.904Z,23.22
2022-09-16T11:11:46.733Z,23.32
2022-09-16T11:16:46.019Z,23.32
2022-09-16T11:21:45.329Z,23.36
2022-09-16T11:26:44.537Z,23.46
2022-09-16T11:31:43.863Z,23.43
2022-09-16T11:36:41.955Z,23.40
2022-09-16T11:41:41.214Z,23.33
2022-09-16T11:46:41.490Z,23.38
2022-09-16T11:51:40.850Z,23.38
2022-09-16T11:56:40.089Z,23.36
2022-09-16T12:01:39.394Z,23.31
2022-09-16T12:06:39.890Z,23.16
2022-09-16T12:11:36.841Z,23.16
2022-09-16T12:16:37.093Z,23.05
2022-09-16T12:21:36.267Z,22.98
2022-09-16T12:26:35.476Z,22.82
2022-09-16T12:31:34.767Z,22.70
2022-09-16T12:36:34.151Z,22.67
2022-09-16T12:41:33.246Z,22.61
2022-09-16T12:46:32.648Z,22.58
2022-09-16T12:51:31.641Z,22.68
2022-09-16T12:56:29.939Z,22.64
2022-09-16T13:01:30.216Z,22.64
2022-09-16T13:06:30.478Z,22.83
2022-09-16T13:12:16.643Z,22.67
2022-09-16T13:16:26.966Z,22.62
2022-09-16T13:21:26.216Z,22.58
2022-09-16T13:26:26.623Z,22.52
2022-09-16T13:31:26.161Z,22.46
2022-09-16T13:36:24.784Z,22.47
2022-09-16T13:41:23.960Z,22.45
2022-09-16T13:46:22.131Z,22.37
2022-09-16T13:51:22.311Z,22.37
2022-09-16T13:56:22.497Z,22.31
2022-09-16T14:01:22.683Z,22.31
2022-09-16T14:06:19.827Z,22.35
2022-09-16T14:11:19.229Z,22.36
2022-09-16T14:16:21.528Z,22.33
2022-09-16T14:21:17.658Z,22.36
2022-09-16T14:26:16.984Z,22.28
2022-09-16T14:31:16.191Z,22.30
2022-09-16T14:36:16.385Z,22.36
2022-09-16T14:41:14.560Z,22.25
2022-09-16T14:46:13.860Z,22.27
2022-09-16T14:51:13.019Z,22.27
2022-09-16T14:56:13.143Z,22.22
2022-09-16T15:01:13.230Z,22.20
2022-09-16T15:06:10.758Z,22.12
2022-09-16T15:11:19.358Z,22.05
2022-09-16T15:16:09.293Z,22.00
2022-09-16T15:21:07.438Z,21.90
2022-09-16T15:26:07.567Z,21.91
2022-09-16T15:31:05.919Z,21.94
2022-09-16T15:36:06.046Z,22.02
2022-09-16T15:41:06.183Z,22.22
2022-09-16T15:46:05.553Z,22.57
2022-09-16T15:51:04.695Z,22.36
2022-09-16T15:56:04.023Z,22.85
2022-09-16T16:01:04.394Z,24.64
2022-09-16T16:06:01.405Z,25.28
2022-09-16T16:11:00.787Z,25.28
2022-09-16T16:15:59.974Z,26.55
2022-09-16T16:20:58.094Z,26.48
2022-09-16T16:25:58.254Z,26.26
2022-09-16T16:30:56.585Z,26.82
2022-09-16T16:35:57.770Z,26.54
2022-09-16T16:40:58.087Z,26.69
2022-09-16T16:45:55.338Z,26.72
2022-09-16T16:50:55.505Z,27.00
2022-09-16T16:55:53.819Z,26.81
2022-09-16T17:00:53.088Z,26.84
2022-09-16T17:05:54.374Z,27.04
2022-09-16T17:10:51.645Z,27.28
2022-09-16T17:15:50.942Z,27.04
2022-09-16T17:20:50.279Z,26.76
2022-09-16T17:25:49.614Z,26.75
2022-09-16T17:30:48.964Z,26.40
2022-09-16T17:35:50.085Z,26.60
2022-09-16T17:40:47.351Z,26.09
2022-09-16T17:45:47.664Z,25.91
2022-09-16T17:50:45.787Z,25.98
2022-09-16T17:55:46.126Z,25.69
2022-09-16T18:00:44.432Z,26.18
2022-09-16T18:05:43.764Z,26.12
2022-09-16T18:10:42.118Z,26.62
2022-09-16T18:15:42.250Z,24.45
2022-09-16T18:20:40.605Z,22.37
2022-09-16T18:25:40.723Z,20.69
2022-09-16T18:30:40.036Z,19.71
2022-09-16T18:35:39.495Z,19.92
2022-09-16T18:40:40.938Z,20.13
2022-09-16T18:45:37.902Z,19.73
2022-09-16T18:50:37.185Z,19.19
2022-09-16T18:55:37.428Z,19.71
2022-09-16T19:00:35.668Z,20.58
2022-09-16T19:05:34.830Z,20.43
2022-09-16T19:10:35.007Z,20.62
2022-09-16T19:15:34.243Z,21.07
2022-09-16T19:20:33.410Z,19.76
2022-09-16T19:25:31.610Z,19.74
2022-09-16T19:30:31.897Z,19.23
2022-09-16T19:35:31.428Z,19.04
2022-09-16T19:40:29.330Z,19.10
2022-09-16T19:45:28.366Z,19.16
2022-09-16T19:50:28.541Z,19.22
2022-09-16T19:55:27.702Z,19.43
2022-09-16T20:00:36.721Z,19.86
2022-09-16T20:05:25.116Z,19.54
2022-09-16T20:10:23.308Z,19.28
2022-09-16T20:15:23.487Z,19.06
2022-09-16T20:20:24.683Z,19.51
2022-09-16T20:25:23.682Z,19.18
2022-09-16T20:30:21.009Z,19.14
2022-09-16T20:35:20.226Z,18.98
2022-09-16T20:40:19.540Z,19.65
2022-09-16T20:45:19.601Z,18.67
2022-09-16T20:50:17.804Z,19.00
2022-09-16T20:55:17.147Z,18.69
2022-09-16T21:00:17.316Z,18.75
2022-09-16T21:05:15.456Z,19.10
2022-09-16T21:10:15.656Z,19.55
2022-09-16T21:15:14.855Z,19.14
2022-09-16T21:20:13.037Z,22.61
2022-09-16T21:25:12.193Z,23.87
2022-09-16T21:30:11.360Z,24.71
2022-09-16T21:35:15.524Z,26.75
2022-09-16T21:40:09.775Z,26.66
2022-09-16T21:45:09.982Z,24.61
2022-09-16T21:50:08.133Z,21.88
2022-09-16T21:55:07.286Z,21.35
2022-09-16T22:00:06.456Z,20.13
2022-09-16T22:05:06.618Z,19.54
2022-09-16T22:10:04.824Z,18.90
2022-09-16T22:15:03.997Z,20.72
2022-09-16T22:20:03.192Z,22.76
2022-09-16T22:25:02.437Z,21.67
2022-09-16T22:30:01.606Z,21.42
2022-09-16T22:35:03.774Z,20.61
2022-09-16T22:40:02.007Z,19.62
2022-09-16T22:45:00.210Z,20.48
2022-09-16T22:49:58.370Z,19.46
2022-09-16T22:54:58.554Z,19.06
2022-09-16T22:59:56.751Z,19.22
2022-09-16T23:04:55.949Z,21.24
2022-09-16T23:09:56.128Z,23.48
2022-09-16T23:14:55.309Z,25.27
2022-09-16T23:19:53.496Z,25.85
2022-09-16T23:24:52.738Z,26.48
2022-09-16T23:29:52.879Z,26.48
2022-09-16T23:34:52.057Z,26.62
2022-09-16T23:39:51.254Z,26.62
2022-09-16T23:44:50.438Z,26.65
2022-09-16T23:49:49.774Z,26.92
2022-09-16T23:54:47.921Z,26.97
2022-09-16T23:59:47.092Z,26.91
